Time;durP1;ratioP1;P1;durP2;ratioP2;P2;SDS_P1;SDS_P2;PMS_P1;PMS_P2;Temp;Humidity;BMP_temperature;BMP_pressure;BME280_temperature;BME280_humidity;BME280_pressure;Samples;Min_cycle;Max_cycle;Signal;HPM_P1;HPM_P2
2024/01/17 00:00:01;;;;;;;43.17;18.60;;;;;-4.10;95856.00;;;;5011279;28;20465;-88
2024/01/17 00:02:52;;;;;;;9.43;3.83;;;;;-4.20;95855.00;;;;5016775;28;20453;-87
2024/01/17 00:05:41;;;;;;;7.20;3.67;;;;;-4.10;95849.00;;;;5014618;28;20443;-88
2024/01/17 00:08:31;;;;;;;29.73;19.87;;;;;-4.10;95843.00;;;;5015774;28;20424;-89
2024/01/17 00:11:20;;;;;;;10.47;5.03;;;;;-4.70;95836.00;;;;5011074;28;20460;-88
2024/01/17 00:14:10;;;;;;;25.87;13.63;;;;;-4.60;95826.00;;;;5015075;28;20456;-89
2024/01/17 00:17:00;;;;;;;12.20;4.53;;;;;-4.80;95823.00;;;;5013807;28;20848;-86
2024/01/17 00:19:50;;;;;;;8.93;3.43;;;;;-4.70;95816.00;;;;5028193;28;20463;-88
2024/01/17 00:22:40;;;;;;;9.67;3.57;;;;;-4.30;95827.00;;;;5029904;28;21053;-88
2024/01/17 00:25:29;;;;;;;7.40;2.80;;;;;-4.00;95833.00;;;;5019732;28;20866;-88
2024/01/17 00:28:19;;;;;;;9.93;3.80;;;;;-4.10;95829.00;;;;5011799;28;20447;-87
2024/01/17 00:31:09;;;;;;;8.30;3.50;;;;;-4.00;95828.00;;;;5017546;28;20445;-88
2024/01/17 00:33:58;;;;;;;13.90;5.23;;;;;-4.00;95831.00;;;;5017952;28;20440;-87
2024/01/17 00:36:48;;;;;;;7.90;3.20;;;;;-4.10;95832.00;;;;5017770;28;20413;-88
2024/01/17 00:39:37;;;;;;;7.37;3.07;;;;;-3.90;95833.00;;;;5017681;28;20441;-88
2024/01/17 00:42:27;;;;;;;8.60;3.63;;;;;-3.80;95816.00;;;;5013680;28;20825;-88
2024/01/17 00:45:16;;;;;;;9.87;3.87;;;;;-4.40;95812.00;;;;5027930;28;20867;-88
2024/01/17 00:48:07;;;;;;;17.17;6.67;;;;;-4.70;95805.00;;;;5025380;28;20434;-89
2024/01/17 00:50:56;;;;;;;15.77;6.13;;;;;-4.50;95805.00;;;;5018225;28;20457;-88
2024/01/17 00:53:45;;;;;;;12.73;6.80;;;;;-4.40;95800.00;;;;5013695;28;20418;-88
2024/01/17 00:56:35;;;;;;;29.33;16.53;;;;;-4.70;95790.00;;;;5017444;28;20436;-88
2024/01/17 00:59:25;;;;;;;27.03;16.37;;;;;-4.90;95795.00;;;;5015120;28;20950;-88
2024/01/17 01:02:14;;;;;;;13.57;7.73;;;;;-5.70;95795.00;;;;5012308;28;21056;-89
2024/01/17 01:05:05;;;;;;;12.50;4.73;;;;;-5.40;95804.00;;;;5014602;28;20966;-88
2024/01/17 01:07:54;;;;;;;8.33;3.40;;;;;-5.30;95812.00;;;;5014458;28;20441;-88
2024/01/17 01:10:44;;;;;;;7.70;4.20;;;;;-4.90;95814.00;;;;5010964;28;20445;-88
2024/01/17 01:13:33;;;;;;;61.60;39.63;;;;;-4.90;95800.00;;;;5010202;28;20426;-88
2024/01/17 01:16:22;;;;;;;10.20;3.80;;;;;-5.00;95799.00;;;;5013225;28;20452;-89
2024/01/17 01:19:11;;;;;;;12.47;4.80;;;;;-5.00;95801.00;;;;5014041;28;20429;-88
2024/01/17 01:22:02;;;;;;;13.97;5.13;;;;;-4.80;95779.00;;;;5014105;28;20440;-88
2024/01/17 01:24:51;;;;;;;9.80;3.70;;;;;-4.10;95782.00;;;;5017308;28;20995;-88
2024/01/17 01:27:40;;;;;;;9.30;3.47;;;;;-4.40;95762.00;;;;5015284;28;20429;-88
2024/01/17 01:30:30;;;;;;;8.30;3.70;;;;;-4.50;95768.00;;;;5015618;28;20457;-88
2024/01/17 01:33:19;;;;;;;10.47;8.23;;;-5.70;99.90;-4.00;95761.00;;;;5006067;28;20476;-87
2024/01/17 01:36:08;;;;;;;21.03;15.50;;;-4.70;99.90;-4.20;95766.00;;;;5014913;28;20495;-88
2024/01/17 01:38:59;;;;;;;49.23;29.33;;;-4.60;99.90;-5.20;95752.00;;;;5034306;28;20447;-88
2024/01/17 01:41:48;;;;;;;12.50;5.57;;;-4.60;99.90;-5.50;95743.00;;;;5012427;28;20837;-87
2024/01/17 01:44:37;;;;;;;8.87;3.60;;;-5.60;99.90;-5.40;95747.00;;;;5012180;28;20876;-88
2024/01/17 01:47:26;;;;;;;6.17;2.73;;;-5.10;99.90;-5.00;95734.00;;;;5013140;28;20425;-87
2024/01/17 01:50:15;;;;;;;7.27;3.33;;;-5.70;99.90;-5.10;95740.00;;;;5014371;28;20484;-87
2024/01/17 01:53:05;;;;;;;12.17;5.00;;;-6.30;99.90;-5.30;95738.00;;;;5012403;28;20848;-88
2024/01/17 01:55:55;;;;;;;7.20;3.07;;;-6.20;99.90;-4.50;95719.00;;;;5010956;28;20806;-87
2024/01/17 01:58:49;;;;;;;7.93;3.27;;;-6.10;99.90;-5.00;95732.00;;;;5013113;28;20440;-86
2024/01/17 02:01:39;;;;;;;5.33;2.20;;;-5.20;99.90;-5.50;95728.00;;;;5008381;28;20449;-86
2024/01/17 02:04:29;;;;;;;92.57;47.53;;;-6.20;99.90;-5.10;95732.00;;;;5010492;28;20461;-88
2024/01/17 02:07:18;;;;;;;16.87;12.73;;;-4.90;99.90;-5.20;95716.00;;;;5013565;28;20426;-88
2024/01/17 02:10:09;;;;;;;156.73;57.08;;;-6.20;99.90;-5.00;95710.00;;;;5010865;28;20458;-87
2024/01/17 02:13:00;;;;;;;219.00;70.15;;;-6.40;99.90;-5.40;95707.00;;;;5012395;28;20202;-87
2024/01/17 02:15:49;;;;;;;25.27;21.27;;;-4.30;99.90;-4.80;95697.00;;;;5010622;28;20213;-87
2024/01/17 02:18:38;;;;;;;195.07;63.45;;;-4.90;99.90;-5.70;95680.00;;;;5012716;28;20433;-88
2024/01/17 02:21:29;;;;;;;198.57;70.97;;;-6.40;99.90;-5.70;95685.00;;;;5011758;28;20594;-88
2024/01/17 02:24:23;;;;;;;47.53;33.17;;;-4.10;99.90;-5.50;95697.00;;;;5010634;28;20198;-86
2024/01/17 02:27:12;;;;;;;173.38;66.57;;;-6.40;99.90;-4.50;95680.00;;;;5012620;28;20513;-86
2024/01/17 02:30:01;;;;;;;186.48;64.35;;;-4.50;99.90;-4.80;95678.00;;;;5012415;28;20214;-85
2024/01/17 02:32:51;;;;;;;153.77;57.60;;;-4.60;99.90;-4.80;95687.00;;;;5012991;28;20672;-85
2024/01/17 02:35:40;;;;;;;184.88;58.67;;;-4.60;99.90;-4.90;95696.00;;;;5021416;28;20227;-89
2024/01/17 02:38:29;;;;;;;175.32;60.47;;;-4.80;99.90;-5.40;95684.00;;;;5024446;28;20197;-87
2024/01/17 02:41:19;;;;;;;84.05;43.88;;;-6.30;99.90;-5.60;95688.00;;;;5018011;28;20226;-87
2024/01/17 02:44:08;;;;;;;149.02;60.78;;;-5.00;99.90;-5.70;95679.00;;;;5014538;28;20205;-87
2024/01/17 02:46:57;;;;;;;160.25;55.08;;;-5.20;99.90;-5.40;95694.00;;;;5014018;28;20575;-87
2024/01/17 02:49:46;;;;;;;8.70;4.30;;;-5.60;99.90;-5.40;95684.00;;;;5009420;28;20224;-87
2024/01/17 02:52:35;;;;;;;8.93;4.20;;;-6.50;99.90;-5.20;95667.00;;;;5008129;28;20806;-88
2024/01/17 02:55:24;;;;;;;12.37;5.20;;;-4.80;99.90;-5.40;95673.00;;;;5011171;28;20433;-87
2024/01/17 02:58:15;;;;;;;12.40;5.33;;;-6.40;99.90;-4.90;95667.00;;;;5012919;28;20433;-89
2024/01/17 03:01:04;;;;;;;26.07;10.83;;;-5.80;99.90;-4.60;95665.00;;;;5012748;28;20457;-86
2024/01/17 03:03:53;;;;;;;6.73;3.23;;;-6.30;99.90;-5.20;95661.00;;;;5013987;28;20437;-88
2024/01/17 03:06:43;;;;;;;5.80;3.10;;;-4.70;99.90;-5.30;95658.00;;;;5027116;28;20480;-86
2024/01/17 03:09:31;;;;;;;8.33;3.73;;;-6.20;99.90;-5.20;95661.00;;;;5017350;28;20417;-87
2024/01/17 03:12:21;;;;;;;6.97;3.10;;;-4.40;99.90;-4.70;95671.00;;;;5012822;28;20433;-88
2024/01/17 03:15:12;;;;;;;10.30;4.60;;;-4.60;99.90;-4.30;95659.00;;;;5012052;28;20452;-87
2024/01/17 03:18:01;;;;;;;15.77;6.90;;;-5.00;99.90;-4.50;95654.00;;;;5014094;28;20829;-88
2024/01/17 03:20:50;;;;;;;10.23;4.57;;;-4.90;99.90;-4.60;95657.00;;;;5013589;28;20441;-88
2024/01/17 03:23:39;;;;;;;9.50;5.53;;;-4.10;99.90;-4.10;95646.00;;;;5011207;28;20441;-87
2024/01/17 03:26:28;;;;;;;16.17;11.93;;;-5.10;99.90;-4.30;95627.00;;;;5011287;28;20465;-88
2024/01/17 03:29:17;;;;;;;15.33;13.70;;;-4.10;99.90;-4.20;95625.00;;;;5010037;28;20429;-88
2024/01/17 03:32:08;;;;;;;17.77;13.37;;;-5.60;99.90;-4.10;95617.00;;;;5011363;28;20808;-87
2024/01/17 03:34:57;;;;;;;15.67;13.33;;;-4.80;99.90;-3.80;95617.00;;;;5009111;28;20445;-86
2024/01/17 03:37:46;;;;;;;12.93;11.67;;;-4.30;99.90;-4.10;95606.00;;;;5007497;28;20421;-88
2024/01/17 03:40:35;;;;;;;15.53;13.77;;;-4.50;99.90;-3.60;95624.00;;;;5005609;28;20446;-87
2024/01/17 03:43:24;;;;;;;16.93;15.33;;;-4.10;99.90;-4.10;95608.00;;;;5007625;28;20444;-86
2024/01/17 03:46:14;;;;;;;18.10;14.83;;;-7.00;99.90;-4.30;95615.00;;;;5008031;28;20468;-86
2024/01/17 03:49:04;;;;;;;32.53;25.13;;;-5.10;99.90;-4.60;95611.00;;;;5007685;28;20437;-87
2024/01/17 03:51:55;;;;;;;29.13;23.00;;;-4.40;99.90;-4.50;95610.00;;;;5008208;28;20432;-88
2024/01/17 03:54:44;;;;;;;29.60;23.80;;;-4.70;99.90;-4.30;95616.00;;;;5006616;28;20443;-86
2024/01/17 03:57:34;;;;;;;24.57;20.27;;;-4.70;99.90;-3.40;95620.00;;;;5010901;28;20943;-87
2024/01/17 04:00:23;;;;;;;36.93;28.90;;;-4.70;99.90;-3.50;95607.00;;;;5008518;28;20441;-87
2024/01/17 04:03:13;;;;;;;48.47;33.37;;;-4.40;99.90;-3.80;95603.00;;;;5010569;28;20441;-88
2024/01/17 04:06:04;;;;;;;58.40;38.87;;;-5.20;99.90;-3.90;95578.00;;;;5010205;28;20519;-87
2024/01/17 04:08:52;;;;;;;90.30;44.03;;;-5.10;99.90;-3.10;95576.00;;;;5009056;28;20436;-88
2024/01/17 04:11:41;;;;;;;72.20;39.93;;;-4.10;99.90;-3.00;95584.00;;;;5009951;28;20441;-86
2024/01/17 04:14:31;;;;;;;108.30;53.37;;;-4.70;99.90;-3.20;95578.00;;;;5011039;28;20417;-88
2024/01/17 04:17:20;;;;;;;133.53;58.80;;;-3.90;99.90;-4.00;95576.00;;;;5011091;28;20782;-86
2024/01/17 04:20:10;;;;;;;65.23;39.50;;;-4.60;99.90;-3.80;95563.00;;;;5010977;28;20464;-88
2024/01/17 04:23:00;;;;;;;73.47;41.20;;;-4.90;99.90;-3.60;95564.00;;;;5012234;28;20425;-89
2024/01/17 04:25:51;;;;;;;71.77;39.57;;;-3.80;99.90;-3.70;95575.00;;;;5016605;28;20488;-88
2024/01/17 04:28:40;;;;;;;34.57;27.13;;;-4.90;99.90;-3.20;95569.00;;;;5017748;28;20825;-88
2024/01/17 04:31:31;;;;;;;46.87;32.63;;;-4.10;99.90;-2.70;95561.00;;;;5019159;28;20449;-87
2024/01/17 04:34:20;;;;;;;74.97;41.50;;;-4.30;99.90;-2.60;95553.00;;;;5018727;28;20441;-89
2024/01/17 04:37:09;;;;;;;76.43;50.83;;;-4.10;99.90;-3.10;95549.00;;;;5016332;28;20447;-87
2024/01/17 04:40:00;;;;;;;48.17;33.33;;;-4.00;99.90;-3.10;95552.00;;;;5026246;28;20437;-88
2024/01/17 04:42:49;;;;;;;66.83;40.10;;;-3.30;99.90;-3.00;95553.00;;;;5034163;28;20441;-86
2024/01/17 04:45:38;;;;;;;129.93;58.60;;;-3.20;99.90;-3.70;95535.00;;;;5015745;28;20469;-88
2024/01/17 04:48:27;;;;;;;279.98;133.20;;;-4.70;99.90;-3.20;95560.00;;;;5011384;28;20417;-88
2024/01/17 04:51:16;;;;;;;212.40;75.53;;;-3.10;99.90;-3.20;95553.00;;;;5013399;28;20268;-88
2024/01/17 04:54:05;;;;;;;74.17;43.70;;;-3.10;99.90;-3.00;95553.00;;;;5034218;28;20241;-88
2024/01/17 04:56:55;;;;;;;99.57;51.27;;;-4.60;99.90;-3.10;95544.00;;;;5027452;28;20431;-88
2024/01/17 04:59:44;;;;;;;192.13;74.13;;;-4.10;99.90;-3.40;95544.00;;;;5015591;28;20437;-88
2024/01/17 05:02:33;;;;;;;217.87;84.67;;;-3.60;99.90;-3.30;95544.00;;;;5013582;28;20425;-90
2024/01/17 05:05:22;;;;;;;82.63;45.23;;;-3.60;99.90;-3.10;95552.00;;;;5013915;28;20921;-89
2024/01/17 05:08:11;;;;;;;61.07;39.00;;;-3.90;99.90;-2.50;95541.00;;;;5016246;28;20829;-88
2024/01/17 05:11:00;;;;;;;116.57;52.03;;;-3.70;99.90;-2.50;95539.00;;;;5014590;28;20928;-88
2024/01/17 05:13:50;;;;;;;126.20;60.07;;;-3.80;99.90;-2.50;95545.00;;;;5018833;28;20424;-88
2024/01/17 05:16:39;;;;;;;48.60;33.47;;;-3.90;99.90;-2.10;95535.00;;;;5014620;28;20434;-88
2024/01/17 05:19:28;;;;;;;23.13;20.63;;;-3.60;99.90;-2.20;95541.00;;;;5010191;28;20430;-88
2024/01/17 05:22:17;;;;;;;11.13;7.07;;;-3.90;99.90;-2.90;95532.00;;;;5011295;28;20430;-87
2024/01/17 05:25:08;;;;;;;19.23;14.10;;;-2.70;99.90;-3.00;95533.00;;;;5009302;28;20422;-88
2024/01/17 05:27:58;;;;;;;20.53;12.93;;;-4.20;99.90;-2.70;95529.00;;;;5026035;28;20429;-86
2024/01/17 05:30:49;;;;;;;9.93;8.90;;;-4.20;99.90;-2.20;95545.00;;;;5039994;28;20449;-91
2024/01/17 05:33:38;;;;;;;13.30;10.97;;;-4.70;99.90;-2.70;95545.00;;;;5020899;28;20421;-91
2024/01/17 05:36:28;;;;;;;12.83;10.87;;;-4.10;99.90;-2.70;95543.00;;;;5023808;28;20460;-91
2024/01/17 05:39:18;;;;;;;17.50;13.77;;;-3.80;99.90;-2.20;95548.00;;;;5022524;28;20433;-91
2024/01/17 05:42:07;;;;;;;19.43;13.87;;;-4.10;99.90;-2.50;95531.00;;;;5025374;28;20436;-90
2024/01/17 05:44:56;;;;;;;16.73;13.17;;;-4.00;99.90;-3.40;95518.00;;;;5018046;28;20439;-91
2024/01/17 05:47:46;;;;;;;16.57;12.83;;;-4.10;99.90;-3.30;95509.00;;;;5022723;28;20456;-89
2024/01/17 05:50:36;;;;;;;11.83;10.47;;;-4.20;99.90;-2.90;95523.00;;;;5023128;28;20456;-89
2024/01/17 05:53:26;;;;;;;21.80;16.43;;;-4.20;99.90;-2.70;95523.00;;;;5013792;28;20753;-89
2024/01/17 05:56:15;;;;;;;18.07;13.93;;;-4.00;99.90;-2.60;95533.00;;;;5012175;28;20445;-88
2024/01/17 05:59:05;;;;;;;15.27;11.37;;;-4.00;99.90;-2.70;95520.00;;;;5011760;28;20417;-90
2024/01/17 06:01:54;;;;;;;18.00;11.67;;;-3.30;99.90;-2.00;95535.00;;;;5014757;28;20460;-90
2024/01/17 06:04:46;;;;;;;17.80;13.73;;;-4.00;99.90;-2.40;95538.00;;;;5021433;28;20489;-90
2024/01/17 06:07:35;;;;;;;19.37;16.87;;;-3.90;99.90;-2.20;95531.00;;;;5014010;28;20457;-89
2024/01/17 06:10:26;;;;;;;18.47;14.77;;;-3.70;99.90;-2.30;95516.00;;;;5013410;28;20433;-90
2024/01/17 06:13:16;;;;;;;19.03;14.57;;;-3.60;99.90;-2.50;95502.00;;;;5008139;28;20492;-89
2024/01/17 06:16:05;;;;;;;18.17;13.23;;;-3.80;99.90;-2.40;95496.00;;;;5009979;28;20421;-88
2024/01/17 06:18:59;;;;;;;18.73;15.63;;;-3.80;99.90;-2.10;95500.00;;;;5010259;28;20425;-89
2024/01/17 06:21:49;;;;;;;20.77;15.03;;;-3.70;99.90;-2.30;95500.00;;;;5006483;28;20989;-89
2024/01/17 06:24:38;;;;;;;19.13;15.20;;;-3.10;99.90;-1.90;95496.00;;;;5010124;28;20433;-89
2024/01/17 06:27:27;;;;;;;12.03;7.60;;;-3.60;99.90;-2.30;95488.00;;;;5006898;28;20588;-90
2024/01/17 06:30:17;;;;;;;17.00;8.07;;;-3.70;99.90;-2.30;95488.00;;;;5011126;28;20468;-90
2024/01/17 06:33:06;;;;;;;9.80;7.07;;;-3.60;99.90;-1.70;95501.00;;;;5011064;28;20500;-91
2024/01/17 06:35:58;;;;;;;13.10;8.17;;;-3.60;99.90;-2.40;95501.00;;;;5009881;28;20433;-90
2024/01/17 06:38:48;;;;;;;10.80;8.17;;;-3.60;99.90;-2.60;95511.00;;;;4991475;28;20437;-91
2024/01/17 06:41:38;;;;;;;11.00;8.40;;;-3.40;99.90;-2.00;95507.00;;;;5013052;28;20954;-90
2024/01/17 06:44:27;;;;;;;10.67;9.00;;;-3.60;99.90;-1.70;95517.00;;;;5013506;28;20417;-91
2024/01/17 06:47:16;;;;;;;14.67;11.57;;;-3.50;99.90;-1.60;95523.00;;;;5015901;28;20472;-91
2024/01/17 06:50:07;;;;;;;16.17;9.50;;;-3.60;99.90;-1.80;95521.00;;;;5011445;28;20991;-91
2024/01/17 06:52:57;;;;;;;16.57;10.97;;;-2.90;99.90;-2.50;95501.00;;;;5000297;28;20457;-90
2024/01/17 06:55:47;;;;;;;11.30;5.77;;;-3.10;99.90;-2.30;95489.00;;;;5001018;28;20464;-89
2024/01/17 06:58:37;;;;;;;64.47;29.40;;;-3.70;99.90;-2.00;95498.00;;;;5000528;28;20441;-90
2024/01/17 07:01:26;;;;;;;65.97;38.03;;;-3.40;99.90;-1.60;95494.00;;;;4991306;28;20472;-90
2024/01/17 07:04:15;;;;;;;76.20;41.03;;;-3.50;99.90;-1.70;95485.00;;;;4983638;28;20433;-91
2024/01/17 07:07:05;;;;;;;79.43;47.90;;;-3.40;99.90;-1.70;95491.00;;;;4980501;28;20454;-91
2024/01/17 07:09:54;;;;;;;70.00;33.53;;;-3.30;99.90;-1.60;95499.00;;;;5003543;28;20442;-89
2024/01/17 07:12:44;;;;;;;69.37;34.43;;;-3.40;99.90;-1.50;95479.00;;;;5015326;28;20417;-91
2024/01/17 07:15:34;;;;;;;27.13;13.40;;;-3.30;99.90;-1.50;95483.00;;;;5011286;28;20439;-90
2024/01/17 07:18:23;;;;;;;13.03;8.00;;;-3.20;99.90;-1.90;95465.00;;;;5015864;28;20421;-92
2024/01/17 07:21:12;;;;;;;16.70;9.23;;;-3.20;99.90;-1.40;95474.00;;;;5008304;28;20500;-90
2024/01/17 07:24:02;;;;;;;17.00;9.37;;;-3.30;99.90;-1.40;95467.00;;;;4992788;28;21485;-91
2024/01/17 07:26:51;;;;;;;10.10;7.43;;;-3.20;99.90;-1.40;95462.00;;;;5008476;28;20473;-90
2024/01/17 07:29:41;;;;;;;13.53;9.27;;;-3.20;99.90;-1.10;95458.00;;;;5010176;28;20429;-90
2024/01/17 07:32:30;;;;;;;13.10;9.20;;;-3.20;99.90;-1.40;95442.00;;;;5006775;28;21013;-90
2024/01/17 07:35:20;;;;;;;14.33;7.67;;;-3.00;99.90;-1.40;95441.00;;;;5010528;28;20539;-90
2024/01/17 07:38:14;;;;;;;16.53;7.63;;;-3.20;99.90;-1.90;95442.00;;;;5010693;28;20433;-92
2024/01/17 07:41:05;;;;;;;23.17;10.40;;;-3.00;99.90;-1.20;95437.00;;;;5011286;28;20465;-89
2024/01/17 07:43:55;;;;;;;11.67;6.27;;;-3.00;99.90;-1.10;95435.00;;;;5014018;28;20687;-89
2024/01/17 07:46:47;;;;;;;9.23;5.27;;;-3.00;99.90;-1.00;95428.00;;;;5018469;28;20424;-91
2024/01/17 07:49:38;;;;;;;11.90;6.07;;;-2.90;99.90;-0.80;95427.00;;;;5034723;28;20417;-91
2024/01/17 07:52:27;;;;;;;13.07;6.63;;;-2.80;99.90;-1.00;95417.00;;;;5035963;28;20425;-90
2024/01/17 07:55:17;;;;;;;19.90;9.80;;;-2.80;99.90;-1.40;95425.00;;;;5018891;28;20425;-92
2024/01/17 07:58:06;;;;;;;15.97;7.17;;;-2.80;99.90;-1.40;95411.00;;;;5022834;28;20433;-90
2024/01/17 08:00:55;;;;;;;11.20;5.17;;;-2.90;99.90;-1.20;95410.00;;;;5024706;28;20473;-91
2024/01/17 08:03:46;;;;;;;9.73;4.27;;;-2.80;99.90;-1.20;95416.00;;;;5025393;28;20429;-91
2024/01/17 08:06:35;;;;;;;9.63;4.07;;;-2.80;99.90;-1.40;95413.00;;;;5026355;28;20432;-91
2024/01/17 08:09:26;;;;;;;10.80;4.40;;;-2.90;99.90;-1.30;95420.00;;;;5018939;28;20513;-90
2024/01/17 08:12:15;;;;;;;12.57;5.43;;;-2.80;99.90;-0.70;95418.00;;;;5021877;28;20425;-90
2024/01/17 08:15:05;;;;;;;18.67;7.70;;;-2.70;99.90;-0.20;95423.00;;;;5016397;28;20455;-90
2024/01/17 08:17:54;;;;;;;10.50;5.03;;;-2.60;99.90;-0.30;95406.00;;;;5015056;28;20452;-91
2024/01/17 08:20:45;;;;;;;9.43;4.90;;;-2.30;99.90;-0.70;95406.00;;;;5020285;28;20455;-90
2024/01/17 08:23:34;;;;;;;10.70;4.90;;;-2.40;99.90;-1.10;95406.00;;;;5018444;28;20505;-89
2024/01/17 08:26:23;;;;;;;10.67;4.67;;;-2.50;99.90;-1.00;95398.00;;;;5019696;28;20429;-91
2024/01/17 08:29:16;;;;;;;18.93;7.83;;;-2.40;99.90;-0.40;95399.00;;;;5020122;28;20479;-91
2024/01/17 08:32:06;;;;;;;13.10;5.77;;;-2.20;99.90;-0.40;95384.00;;;;5020440;28;20799;-91
2024/01/17 08:34:55;;;;;;;9.23;4.23;;;-2.30;99.90;-0.50;95382.00;;;;5022603;28;20441;-90
2024/01/17 08:37:48;;;;;;;8.53;4.50;;;-2.30;99.90;-0.50;95389.00;;;;5022720;28;20516;-91
2024/01/17 08:40:38;;;;;;;10.63;5.17;;;-2.10;99.90;-0.20;95386.00;;;;5016640;28;20456;-91
2024/01/17 08:43:27;;;;;;;11.47;4.97;;;-2.10;99.90;0.00;95421.00;;;;5019527;28;20443;-91
2024/01/17 08:46:16;;;;;;;16.60;6.90;;;-2.00;99.90;0.40;95414.00;;;;5024126;28;20433;-91
2024/01/17 08:49:05;;;;;;;20.20;8.47;;;-1.80;99.90;0.70;95414.00;;;;5022219;28;20465;-92
2024/01/17 08:51:55;;;;;;;15.70;6.50;;;-1.80;99.90;0.90;95412.00;;;;5019543;28;20441;-91
2024/01/17 08:54:45;;;;;;;13.20;6.23;;;-1.60;99.90;0.80;95417.00;;;;5026348;28;20428;-91
2024/01/17 08:57:34;;;;;;;10.37;6.13;;;-1.50;99.90;1.20;95420.00;;;;5023259;28;20898;-90
2024/01/17 09:00:23;;;;;;;8.60;5.80;;;-1.40;99.90;1.40;95419.00;;;;5020219;28;20452;-91
2024/01/17 09:03:12;;;;;;;14.33;8.10;;;-1.30;99.90;1.30;95413.00;;;;5023363;28;20429;-91
2024/01/17 09:06:02;;;;;;;8.97;5.87;;;-1.10;99.90;1.10;95410.00;;;;5018602;28;20437;-90
2024/01/17 09:08:52;;;;;;;10.50;6.33;;;-0.90;99.90;0.80;95407.00;;;;5019398;28;20531;-91
2024/01/17 09:11:43;;;;;;;10.03;7.10;;;-1.10;99.90;0.90;95401.00;;;;5021507;28;20460;-92
2024/01/17 09:14:33;;;;;;;13.07;6.87;;;-1.00;99.90;0.90;95384.00;;;;5013471;28;20461;-91
2024/01/17 09:17:22;;;;;;;7.20;4.33;;;-1.10;99.90;1.10;95375.00;;;;5023315;28;20436;-90
2024/01/17 09:20:14;;;;;;;17.80;10.53;;;-1.00;99.90;1.70;95382.00;;;;5019574;28;20540;-91
2024/01/17 09:23:04;;;;;;;18.67;11.70;;;-0.80;99.90;1.60;95375.00;;;;5016973;28;20433;-90
2024/01/17 09:25:54;;;;;;;22.80;13.97;;;-0.70;99.90;1.10;95364.00;;;;5032517;28;20437;-89
2024/01/17 09:28:44;;;;;;;19.50;13.47;;;-0.70;99.90;1.90;95342.00;;;;5031033;28;20460;-91
2024/01/17 09:31:34;;;;;;;15.77;11.70;;;-0.60;99.90;1.50;95345.00;;;;5007076;28;20459;-91
2024/01/17 09:34:23;;;;;;;13.97;11.50;;;-0.50;99.90;1.80;95345.00;;;;5019736;28;20441;-90
2024/01/17 09:37:13;;;;;;;20.20;15.03;;;-0.40;99.90;2.20;95359.00;;;;5016652;28;20448;-91
2024/01/17 09:40:05;;;;;;;18.83;16.17;;;-0.40;99.90;2.20;95343.00;;;;5013555;28;20457;-91
2024/01/17 09:42:55;;;;;;;10.77;9.83;;;-0.30;99.90;2.00;95336.00;;;;5015986;28;20429;-90
2024/01/17 09:45:49;;;;;;;16.50;14.87;;;-0.10;99.90;1.50;95330.00;;;;5014868;28;20495;-91
2024/01/17 09:48:38;;;;;;;20.83;15.97;;;-0.10;99.90;1.10;95304.00;;;;5020610;28;20471;-90
2024/01/17 09:51:32;;;;;;;20.27;16.37;;;-0.20;99.90;1.60;95298.00;;;;5012158;28;20462;-90
2024/01/17 09:54:25;;;;;;;13.97;12.83;;;-0.20;99.90;1.20;95298.00;;;;5023964;28;20443;-91
2024/01/17 09:57:22;;;;;;;14.70;13.23;;;-0.40;99.90;2.10;95288.00;;;;5012923;28;20425;-90
2024/01/17 10:00:13;;;;;;;26.67;16.00;;;-0.30;99.90;1.80;95277.00;;;;5013637;28;20554;-90
2024/01/17 10:03:06;;;;;;;15.40;12.90;;;-0.10;99.90;2.20;95248.00;;;;5013965;28;20428;-91
2024/01/17 10:05:58;;;;;;;18.47;16.53;;;-0.20;99.90;2.80;95255.00;;;;5017757;28;20429;-90
2024/01/17 10:08:48;;;;;;;16.20;14.70;;;0.20;99.90;2.70;95241.00;;;;5019356;28;20465;-91
2024/01/17 10:11:37;;;;;;;20.87;19.03;;;0.10;99.90;3.00;95245.00;;;;5031339;28;20468;-91
2024/01/17 10:14:27;;;;;;;16.43;15.00;;;0.40;99.90;3.30;95242.00;;;;5022047;28;20826;-91
2024/01/17 10:17:16;;;;;;;22.13;19.97;;;0.60;99.90;3.60;95225.00;;;;5012280;28;20438;-90
2024/01/17 10:20:09;;;;;;;24.23;21.73;;;0.90;99.90;3.60;95226.00;;;;5006974;28;20970;-90
2024/01/17 10:22:58;;;;;;;18.90;17.07;;;0.90;99.90;3.60;95221.00;;;;5007924;28;21036;-91
2024/01/17 10:25:47;;;;;;;15.40;14.13;;;0.90;99.90;3.60;95218.00;;;;5008511;28;20902;-90
2024/01/17 10:28:36;;;;;;;25.27;22.93;;;1.00;99.90;3.70;95211.00;;;;5009293;28;20457;-91
2024/01/17 10:31:26;;;;;;;22.43;20.37;;;1.10;99.90;4.00;95194.00;;;;5010887;28;20449;-91
2024/01/17 10:34:15;;;;;;;26.00;23.30;;;1.20;99.90;4.20;95205.00;;;;5011455;28;20607;-90
2024/01/17 10:37:07;;;;;;;20.00;16.67;;;1.40;99.90;4.40;95204.00;;;;5010449;28;20429;-90
2024/01/17 10:40:09;;;;;;;16.00;14.60;;;1.70;99.90;4.50;95208.00;;;;5006303;28;20904;-90
2024/01/17 10:43:09;;;;;;;12.93;10.37;;;1.90;99.90;4.90;95209.00;;;;5007433;28;20937;-90
2024/01/17 10:46:02;;;;;;;15.53;14.07;;;2.10;99.90;5.20;95195.00;;;;5006549;28;20956;-90
2024/01/17 10:48:52;;;;;;;14.33;10.43;;;2.40;99.90;5.00;95190.00;;;;5006283;28;20473;-90
2024/01/17 10:51:53;;;;;;;10.03;9.07;;;2.70;99.70;5.30;95175.00;;;;5007136;28;20236;-90
2024/01/17 10:54:50;;;;;;;16.97;11.90;;;2.80;99.40;5.20;95158.00;;;;5009557;28;20300;-91
2024/01/17 10:57:42;;;;;;;14.93;12.40;;;3.00;98.70;5.30;95156.00;;;;5008303;28;20206;-90
2024/01/17 11:00:32;;;;;;;14.97;13.50;;;3.00;98.30;5.60;95154.00;;;;5011388;28;20721;-90
2024/01/17 11:03:24;;;;;;;16.47;15.10;;;2.90;98.40;5.60;95144.00;;;;5009557;28;20212;-90
2024/01/17 11:06:14;;;;;;;21.17;16.37;;;3.10;97.70;5.70;95135.00;;;;5010917;28;20259;-90
2024/01/17 11:09:06;;;;;;;18.10;16.07;;;3.20;97.70;5.70;95124.00;;;;5007573;28;20230;-89
2024/01/17 11:11:58;;;;;;;19.43;15.97;;;3.20;97.40;5.90;95118.00;;;;5004045;28;20209;-89
2024/01/17 11:14:48;;;;;;;17.37;13.30;;;3.40;97.30;5.80;95111.00;;;;5006979;28;20224;-90
2024/01/17 11:17:39;;;;;;;15.90;12.23;;;3.50;96.70;5.80;95114.00;;;;5010943;28;20214;-90
2024/01/17 11:20:28;;;;;;;11.00;9.90;;;3.50;96.20;5.80;95113.00;;;;5003888;28;20661;-89
2024/01/17 11:23:25;;;;;;;17.83;12.20;;;3.40;96.10;5.80;95100.00;;;;5005996;28;20206;-90
2024/01/17 11:26:22;;;;;;;18.63;11.10;;;3.50;95.50;6.00;95112.00;;;;5010429;28;20214;-89
2024/01/17 11:29:22;;;;;;;18.87;10.30;;;3.60;95.90;4.90;95095.00;;;;5008573;28;20233;-90
2024/01/17 11:32:19;;;;;;;16.87;8.23;;;3.60;94.70;5.30;95106.00;;;;5012408;28;20213;-91
2024/01/17 11:35:10;;;;;;;16.77;8.67;;;3.50;95.20;5.70;95106.00;;;;5010058;28;20229;-87
2024/01/17 11:38:01;;;;;;;10.30;6.10;;;3.30;95.70;5.60;95086.00;;;;5014672;28;20224;-90
2024/01/17 11:40:53;;;;;;;9.23;5.57;;;3.20;96.00;5.60;95091.00;;;;5010954;28;20582;-90
2024/01/17 11:43:43;;;;;;;15.23;9.53;;;3.30;96.00;5.50;95083.00;;;;5033202;28;20216;-87
2024/01/17 11:46:34;;;;;;;13.97;9.17;;;3.30;95.90;5.10;95076.00;;;;5027189;28;20202;-90
2024/01/17 11:49:42;;;;;;;6.47;5.47;;;3.10;95.60;5.80;95077.00;;;;5004048;28;20257;-91
2024/01/17 11:52:37;;;;;;;12.73;7.23;;;3.10;96.10;5.90;95068.00;;;;5009333;28;20232;-91
2024/01/17 11:55:32;;;;;;;13.13;8.13;;;3.20;96.10;5.80;95072.00;;;;5008322;28;20198;-91
2024/01/17 11:58:22;;;;;;;7.87;5.70;;;3.30;96.00;5.70;95068.00;;;;5010843;28;21153;-91
2024/01/17 12:01:14;;;;;;;11.17;7.00;;;3.20;95.80;5.40;95056.00;;;;5009336;28;20228;-90
2024/01/17 12:04:18;;;;;;;14.77;9.43;;;3.30;95.30;5.50;95044.00;;;;5006865;28;20202;-91
2024/01/17 12:07:08;;;;;;;16.77;9.73;;;3.30;95.50;5.60;95040.00;;;;5010289;28;20307;-91
2024/01/17 12:09:57;;;;;;;11.00;8.77;;;3.10;95.90;5.40;95032.00;;;;5012118;28;20226;-90
2024/01/17 12:12:46;;;;;;;11.00;9.23;;;3.10;95.90;5.60;95023.00;;;;5009693;28;20256;-90
2024/01/17 12:15:35;;;;;;;14.10;9.73;;;3.00;96.30;5.40;95032.00;;;;5007729;28;20202;-90
2024/01/17 12:18:26;;;;;;;12.03;9.03;;;3.10;96.10;5.00;95030.00;;;;5012306;28;20259;-89
2024/01/17 12:21:16;;;;;;;14.90;11.17;;;2.90;95.50;5.00;95022.00;;;;5011300;28;20230;-89
2024/01/17 12:24:11;;;;;;;16.13;11.67;;;2.90;95.80;5.30;95024.00;;;;5012751;28;20208;-89
2024/01/17 12:27:00;;;;;;;11.90;10.53;;;2.80;95.60;5.40;95020.00;;;;5011946;28;20198;-90
2024/01/17 12:29:54;;;;;;;9.50;8.67;;;2.80;96.50;5.30;95012.00;;;;5010842;28;20233;-90
2024/01/17 12:32:43;;;;;;;11.93;10.60;;;2.70;95.90;5.20;95012.00;;;;5010856;28;20319;-91
2024/01/17 12:35:32;;;;;;;13.10;11.83;;;2.90;96.00;5.40;95017.00;;;;5011576;28;20420;-90
2024/01/17 12:38:23;;;;;;;18.80;16.27;;;2.80;96.10;5.10;95005.00;;;;5010894;28;20198;-90